createdAt,value
2018-11-04T00:00:32.321Z,20.02
2018-11-04T00:01:06.777Z,18.85
2018-11-04T00:01:40.953Z,19.37
2018-11-04T00:02:15.233Z,19.23
2018-11-04T00:02:50.176Z,20.57
2018-11-04T00:03:25.312Z,25.12
2018-11-04T00:03:59.409Z,18.90
2018-11-04T00:04:33.509Z,17.98
2018-11-04T00:06:11.077Z,20.45
2018-11-04T00:06:46.737Z,27.65
2018-11-04T00:07:21.177Z,22.55
2018-11-04T00:07:55.375Z,23.67
2018-11-04T00:08:29.829Z,26.87
2018-11-04T00:09:05.321Z,22.93
2018-11-04T00:09:39.425Z,19.48
2018-11-04T00:10:13.558Z,16.87
2018-11-04T00:10:47.671Z,21.62
2018-11-04T00:11:21.793Z,24.70
2018-11-04T00:11:55.914Z,25.00
2018-11-04T00:12:30.046Z,20.10
2018-11-04T00:13:04.502Z,23.10
2018-11-04T00:13:38.621Z,20.30
2018-11-04T00:14:12.758Z,20.80
2018-11-04T00:14:47.244Z,23.15
2018-11-04T00:15:21.391Z,21.85
2018-11-04T00:15:55.486Z,18.57
2018-11-04T00:16:29.588Z,21.62
2018-11-04T00:17:03.744Z,17.02
2018-11-04T00:17:38.603Z,24.67
2018-11-04T00:18:12.720Z,19.52
2018-11-04T00:18:46.862Z,20.62
2018-11-04T00:19:21.336Z,20.70
2018-11-04T00:19:55.471Z,19.40
2018-11-04T00:20:30.282Z,18.35
2018-11-04T00:21:04.627Z,17.87
2018-11-04T00:21:39.445Z,17.92
2018-11-04T00:22:13.603Z,19.57
2018-11-04T00:22:47.747Z,18.65
2018-11-04T00:23:21.845Z,20.02
2018-11-04T00:23:56.344Z,19.62
2018-11-04T00:24:30.623Z,23.50
2018-11-04T00:25:04.969Z,23.98
2018-11-04T00:25:39.110Z,20.88
2018-11-04T00:26:13.539Z,20.23
2018-11-04T00:26:47.687Z,16.02
2018-11-04T00:27:22.377Z,15.98
2018-11-04T00:27:56.664Z,18.57
2018-11-04T00:28:30.790Z,18.95
2018-11-04T00:29:05.152Z,19.85
2018-11-04T00:29:39.255Z,24.50
2018-11-04T00:30:14.845Z,17.12
2018-11-04T00:30:49.278Z,17.17
2018-11-04T00:31:23.389Z,20.15
2018-11-04T00:31:57.514Z,17.00
2018-11-04T00:32:31.625Z,18.27
2018-11-04T00:33:06.065Z,19.95
2018-11-04T00:33:40.525Z,18.37
2018-11-04T00:34:15.037Z,22.20
2018-11-04T00:34:49.155Z,21.37
2018-11-04T00:35:23.237Z,16.82
2018-11-04T00:35:57.343Z,17.35
2018-11-04T00:36:31.485Z,15.48
2018-11-04T00:37:06.701Z,16.20
2018-11-04T00:37:40.859Z,15.68
2018-11-04T00:38:14.937Z,16.57
2018-11-04T00:38:49.407Z,19.17
2018-11-04T00:39:23.532Z,21.55
2018-11-04T00:39:57.656Z,19.90
2018-11-04T00:40:31.785Z,17.45
2018-11-04T00:41:06.624Z,17.45
2018-11-04T00:41:40.733Z,21.07
2018-11-04T00:42:14.867Z,21.70
2018-11-04T00:42:49.019Z,16.95
2018-11-04T00:43:23.100Z,17.40
2018-11-04T00:43:57.206Z,19.57
2018-11-04T00:44:31.378Z,26.07
2018-11-04T00:45:07.250Z,16.90
2018-11-04T00:45:41.508Z,19.92
2018-11-04T00:46:15.954Z,21.05
2018-11-04T00:46:50.101Z,15.32
2018-11-04T00:47:24.203Z,19.40
2018-11-04T00:47:58.393Z,23.18
2018-11-04T00:48:32.554Z,14.45
2018-11-04T00:49:07.381Z,16.15
2018-11-04T00:49:41.865Z,14.53
2018-11-04T00:50:16.905Z,18.15
2018-11-04T00:50:51.101Z,17.65
2018-11-04T00:51:25.549Z,20.90
2018-11-04T00:51:59.993Z,24.27
2018-11-04T00:52:34.125Z,16.70
2018-11-04T00:53:10.055Z,15.98
2018-11-04T00:53:44.491Z,19.35
2018-11-04T00:54:18.951Z,23.32
2018-11-04T00:54:53.440Z,15.68
2018-11-04T00:55:27.565Z,19.02
2018-11-04T00:56:02.333Z,16.57
2018-11-04T00:56:36.769Z,18.62
2018-11-04T00:57:11.215Z,15.30
2018-11-04T00:57:45.320Z,18.52
2018-11-04T00:58:19.982Z,15.65
2018-11-04T00:58:54.079Z,15.03
2018-11-04T00:59:28.353Z,23.57
2018-11-04T01:00:02.759Z,14.90
2018-11-04T01:00:36.849Z,18.17
2018-11-04T01:01:11.031Z,17.40
2018-11-04T01:01:45.524Z,19.23
2018-11-04T01:02:19.957Z,16.67
2018-11-04T01:02:54.089Z,24.95
2018-11-04T01:03:28.533Z,20.88
2018-11-04T01:04:02.628Z,18.77
2018-11-04T01:04:36.775Z,19.92
2018-11-04T01:05:11.117Z,19.45
2018-11-04T01:05:45.585Z,23.18
2018-11-04T01:06:20.055Z,16.82
2018-11-04T01:06:54.515Z,15.35
2018-11-04T01:07:28.624Z,19.30
2018-11-04T01:08:02.726Z,18.17
2018-11-04T01:08:36.916Z,17.95
2018-11-04T01:09:11.624Z,18.17
2018-11-04T01:09:46.185Z,23.42
2018-11-04T01:10:20.305Z,22.35
2018-11-04T01:10:54.522Z,17.57
2018-11-04T01:11:28.965Z,17.80
2018-11-04T01:12:03.745Z,23.10
2018-11-04T01:12:37.885Z,18.50
2018-11-04T01:13:11.980Z,18.00
2018-11-04T01:13:46.115Z,17.77
2018-11-04T01:14:20.227Z,13.28
2018-11-04T01:14:54.354Z,17.37
2018-11-04T01:15:28.473Z,20.50
2018-11-04T01:16:02.923Z,22.30
2018-11-04T01:16:37.039Z,17.17
2018-11-04T01:17:11.501Z,15.28
2018-11-04T01:17:45.597Z,18.42
2018-11-04T01:18:19.764Z,15.30
2018-11-04T01:18:53.922Z,15.75
2018-11-04T01:19:28.372Z,17.70
2018-11-04T01:20:02.542Z,18.77
2018-11-04T01:20:36.634Z,16.95
2018-11-04T01:21:10.859Z,15.45
2018-11-04T01:21:45.149Z,19.85
2018-11-04T01:22:19.649Z,17.15
2018-11-04T01:22:53.803Z,16.80
2018-11-04T01:23:27.958Z,14.75
2018-11-04T01:24:02.769Z,19.15
2018-11-04T01:24:36.971Z,17.10
2018-11-04T01:25:11.372Z,16.07
2018-11-04T01:25:45.499Z,21.10
2018-11-04T01:26:19.588Z,17.67
2018-11-04T01:26:53.655Z,15.53
2018-11-04T01:27:27.815Z,16.32
2018-11-04T01:28:02.251Z,18.20
2018-11-04T01:28:36.387Z,16.62
2018-11-04T01:29:10.553Z,14.75
2018-11-04T01:29:44.825Z,13.75
2018-11-04T01:30:19.010Z,16.40
2018-11-04T01:30:53.269Z,14.05
2018-11-04T01:31:27.361Z,17.12
2018-11-04T01:32:01.557Z,15.75
2018-11-04T01:32:35.665Z,21.25
2018-11-04T01:33:10.120Z,17.27
2018-11-04T01:33:44.533Z,18.07
2018-11-04T01:34:19.056Z,25.65
2018-11-04T01:34:53.149Z,19.23
2018-11-04T01:35:27.582Z,13.30
2018-11-04T01:36:02.215Z,17.55
2018-11-04T01:36:36.645Z,17.65
2018-11-04T01:37:10.741Z,12.98
2018-11-04T01:37:44.830Z,22.55
2018-11-04T01:38:18.958Z,17.48
2018-11-04T01:38:53.676Z,18.30
2018-11-04T01:39:28.132Z,18.62
2018-11-04T01:40:02.437Z,16.37
2018-11-04T01:40:36.668Z,17.30
2018-11-04T01:41:10.776Z,16.37
2018-11-04T01:41:45.799Z,15.18
2018-11-04T01:42:20.221Z,14.60
2018-11-04T01:42:54.297Z,16.02
2018-11-04T01:43:28.415Z,15.70
2018-11-04T01:44:02.561Z,15.88
2018-11-04T01:44:37.058Z,16.90
2018-11-04T01:45:11.875Z,14.75
2018-11-04T01:45:45.947Z,16.93
2018-11-04T01:46:20.123Z,14.60
2018-11-04T01:46:55.035Z,15.23
2018-11-04T01:47:30.148Z,14.83
2018-11-04T01:48:05.903Z,15.13
2018-11-04T01:48:41.329Z,14.00
2018-11-04T01:49:17.071Z,22.17
2018-11-04T01:49:53.255Z,13.90
2018-11-04T01:50:28.043Z,13.80
2018-11-04T01:51:03.005Z,15.63
2018-11-04T01:51:38.608Z,14.07
2018-11-04T01:52:13.613Z,13.18
2018-11-04T01:52:49.271Z,13.65
2018-11-04T01:53:24.647Z,14.90
2018-11-04T01:53:59.752Z,13.53
2018-11-04T01:54:34.905Z,14.68
2018-11-04T01:55:10.951Z,13.75
2018-11-04T01:55:46.453Z,18.50
2018-11-04T01:56:21.649Z,13.18
2018-11-04T01:56:57.059Z,13.98
2018-11-04T01:57:32.411Z,17.62
2018-11-04T01:58:07.864Z,14.87
2018-11-04T01:58:43.817Z,14.33
2018-11-04T01:59:19.783Z,16.60
2018-11-04T01:59:56.355Z,12.63
2018-11-04T02:00:33.283Z,19.42
2018-11-04T02:01:10.364Z,15.58
2018-11-04T02:01:44.585Z,19.60
2018-11-04T02:02:19.027Z,16.30
2018-11-04T02:02:53.127Z,17.52
2018-11-04T02:03:27.226Z,19.20
2018-11-04T02:04:01.335Z,13.72
2018-11-04T02:04:35.437Z,16.85
2018-11-04T02:05:10.575Z,15.75
2018-11-04T02:05:45.030Z,18.50
2018-11-04T02:06:19.463Z,18.62
2018-11-04T02:06:53.939Z,17.20
2018-11-04T02:07:28.360Z,15.38
2018-11-04T02:08:02.789Z,11.93
2018-11-04T02:08:36.865Z,14.18
2018-11-04T02:09:11.833Z,18.12
2018-11-04T02:09:45.949Z,16.07
2018-11-04T02:10:20.367Z,17.95
2018-11-04T02:10:54.557Z,13.25
2018-11-04T02:11:28.851Z,13.08
2018-11-04T02:12:03.259Z,16.73
2018-11-04T02:12:37.379Z,13.65
2018-11-04T02:13:11.831Z,12.43
2018-11-04T02:13:45.931Z,13.48
2018-11-04T02:14:20.371Z,17.65
2018-11-04T02:14:54.472Z,15.38
2018-11-04T02:15:28.898Z,15.70
2018-11-04T02:16:03.358Z,15.15
2018-11-04T02:16:37.662Z,13.65
2018-11-04T02:17:11.817Z,14.50
2018-11-04T02:17:45.921Z,15.90
2018-11-04T02:18:20.048Z,16.50
2018-11-04T02:18:54.179Z,16.90
2018-11-04T02:19:28.283Z,18.05
2018-11-04T02:20:02.697Z,16.95
2018-11-04T02:20:36.791Z,16.25
2018-11-04T02:21:11.275Z,17.00
2018-11-04T02:21:45.371Z,16.10
2018-11-04T02:22:19.525Z,18.05
2018-11-04T02:22:53.608Z,18.48
2018-11-04T02:23:27.702Z,18.02
2018-11-04T02:24:01.805Z,15.10
2018-11-04T02:24:35.881Z,14.03
2018-11-04T02:25:11.651Z,19.57
2018-11-04T02:25:45.774Z,17.12
2018-11-04T02:26:20.305Z,16.45
2018-11-04T02:26:54.405Z,12.53
2018-11-04T02:27:28.849Z,17.73
2018-11-04T02:28:02.989Z,17.20
2018-11-04T02:28:37.109Z,27.45
2018-11-04T02:29:11.214Z,35.08
2018-11-04T02:29:45.349Z,25.08
2018-11-04T02:30:19.804Z,38.70
2018-11-04T02:30:54.242Z,28.15
2018-11-04T02:31:28.393Z,34.45
2018-11-04T02:32:02.566Z,34.03
2018-11-04T02:32:37.017Z,24.60
2018-11-04T02:33:11.108Z,30.97
2018-11-04T02:33:45.214Z,27.25
2018-11-04T02:34:19.309Z,21.77
2018-11-04T02:34:53.455Z,17.98
2018-11-04T02:35:27.585Z,17.42
2018-11-04T02:36:01.693Z,15.43
2018-11-04T02:36:35.837Z,17.90
2018-11-04T02:37:09.963Z,16.52
2018-11-04T02:37:44.400Z,19.40
2018-11-04T02:38:18.479Z,15.72
2018-11-04T02:38:52.591Z,17.87
2018-11-04T02:39:26.715Z,18.37
2018-11-04T02:40:00.814Z,16.40
2018-11-04T02:40:34.965Z,16.00
2018-11-04T02:41:09.403Z,18.05
2018-11-04T02:41:43.565Z,17.30
2018-11-04T02:42:17.688Z,16.82
2018-11-04T02:42:51.805Z,20.35
2018-11-04T02:43:25.896Z,17.98
2018-11-04T02:44:00.722Z,18.80
2018-11-04T02:44:34.842Z,23.15
2018-11-04T02:45:09.767Z,19.10
2018-11-04T02:45:44.175Z,23.15
2018-11-04T02:46:18.265Z,18.30
2018-11-04T02:46:52.463Z,22.52
2018-11-04T02:47:26.678Z,18.50
2018-11-04T02:48:01.136Z,21.07
2018-11-04T02:48:35.381Z,25.60
2018-11-04T02:49:09.455Z,23.10
2018-11-04T02:49:43.571Z,22.75
2018-11-04T02:50:18.007Z,28.15
2018-11-04T02:50:52.353Z,21.75
2018-11-04T02:51:26.489Z,20.80
2018-11-04T02:52:00.699Z,22.95
2018-11-04T02:52:34.877Z,24.25
2018-11-04T02:53:08.981Z,21.05
2018-11-04T02:53:43.118Z,25.25
2018-11-04T02:54:17.238Z,18.05
2018-11-04T02:54:51.392Z,22.35
2018-11-04T02:55:25.500Z,31.65
2018-11-04T02:55:59.618Z,27.67
2018-11-04T02:56:34.040Z,25.12
2018-11-04T02:57:08.510Z,21.40
2018-11-04T02:57:42.674Z,26.35
2018-11-04T02:58:16.814Z,25.35
2018-11-04T02:58:51.759Z,24.50
2018-11-04T02:59:26.292Z,27.00
2018-11-04T03:00:00.388Z,32.05
2018-11-04T03:00:34.822Z,22.58
2018-11-04T03:01:09.245Z,21.73
2018-11-04T03:01:43.392Z,27.45
2018-11-04T03:02:18.024Z,19.70
2018-11-04T03:02:52.157Z,19.98
2018-11-04T03:03:26.298Z,19.40
2018-11-04T03:04:00.731Z,24.15
2018-11-04T03:04:35.177Z,19.57
2018-11-04T03:05:10.800Z,20.90
2018-11-04T03:05:45.220Z,19.10
2018-11-04T03:06:19.644Z,32.50
2018-11-04T03:06:53.730Z,20.35
2018-11-04T03:07:27.838Z,24.87
2018-11-04T03:08:01.926Z,20.48
2018-11-04T03:08:36.028Z,24.43
2018-11-04T03:09:10.925Z,20.70
2018-11-04T03:09:45.016Z,22.73
2018-11-04T03:10:19.450Z,25.57
2018-11-04T03:10:53.553Z,27.70
2018-11-04T03:11:27.681Z,25.05
2018-11-04T03:12:01.816Z,26.45
2018-11-04T03:12:36.066Z,24.25
2018-11-04T03:13:10.522Z,23.12
2018-11-04T03:13:44.597Z,25.40
2018-11-04T03:14:18.698Z,19.67
2018-11-04T03:14:52.802Z,25.25
2018-11-04T03:15:26.885Z,21.17
2018-11-04T03:16:00.988Z,22.02
2018-11-04T03:16:35.078Z,22.48
2018-11-04T03:17:09.502Z,24.90
2018-11-04T03:17:43.632Z,24.10
2018-11-04T03:18:17.949Z,21.20
2018-11-04T03:18:52.050Z,21.55
2018-11-04T03:19:26.154Z,24.87
2018-11-04T03:20:00.605Z,26.35
2018-11-04T03:20:34.697Z,21.50
2018-11-04T03:21:09.066Z,21.87
2018-11-04T03:21:43.534Z,22.10
2018-11-04T03:22:17.974Z,20.48
2018-11-04T03:22:52.124Z,25.45
2018-11-04T03:23:26.259Z,27.37
2018-11-04T03:24:00.380Z,24.40
2018-11-04T03:24:34.674Z,22.73
2018-11-04T03:25:08.987Z,23.73
2018-11-04T03:25:43.074Z,27.50
2018-11-04T03:26:17.172Z,24.02
2018-11-04T03:26:51.277Z,21.97
2018-11-04T03:27:25.389Z,22.62
2018-11-04T03:27:59.489Z,29.50
2018-11-04T03:28:33.571Z,26.33
2018-11-04T03:29:07.879Z,20.50
2018-11-04T03:29:42.003Z,19.50
2018-11-04T03:30:16.146Z,21.82
2018-11-04T03:30:50.283Z,21.15
2018-11-04T03:31:24.722Z,22.60
2018-11-04T03:31:58.849Z,22.70
2018-11-04T03:32:32.960Z,20.08
2018-11-04T03:33:08.259Z,20.55
2018-11-04T03:33:43.454Z,23.50
2018-11-04T03:34:17.573Z,27.27
2018-11-04T03:34:51.678Z,27.07
2018-11-04T03:35:25.798Z,22.85
2018-11-04T03:35:59.979Z,25.00
2018-11-04T03:36:34.078Z,19.92
2018-11-04T03:37:08.174Z,21.33
2018-11-04T03:37:42.308Z,24.15
2018-11-04T03:38:16.450Z,18.40
2018-11-04T03:38:50.584Z,26.07
2018-11-04T03:39:25.011Z,22.75
2018-11-04T03:39:59.138Z,22.65
2018-11-04T03:40:33.221Z,24.98
2018-11-04T03:41:07.350Z,21.57
2018-11-04T03:41:42.309Z,18.62
2018-11-04T03:42:16.485Z,24.45
2018-11-04T03:42:50.626Z,23.27
2018-11-04T03:43:24.738Z,21.05
2018-11-04T03:43:58.836Z,24.98
2018-11-04T03:44:32.934Z,25.37
2018-11-04T03:45:07.711Z,21.05
2018-11-04T03:45:48.668Z,19.82
2018-11-04T03:46:22.771Z,22.17
2018-11-04T03:46:56.853Z,26.15
2018-11-04T03:47:30.944Z,24.95
2018-11-04T03:48:05.316Z,22.13
2018-11-04T03:48:40.094Z,23.50
2018-11-04T03:49:15.248Z,19.05
2018-11-04T03:49:49.374Z,23.40
2018-11-04T03:50:23.450Z,20.80
2018-11-04T03:50:57.545Z,20.17
2018-11-04T03:51:32.308Z,22.05
2018-11-04T03:52:07.150Z,23.30
2018-11-04T03:52:41.669Z,21.07
2018-11-04T03:53:16.006Z,22.82
2018-11-04T03:53:50.159Z,18.23
2018-11-04T03:54:24.246Z,23.77
2018-11-04T03:54:58.670Z,19.65
2018-11-04T03:55:33.286Z,21.12
2018-11-04T03:56:07.510Z,22.25
2018-11-04T03:56:41.578Z,21.33
2018-11-04T03:57:16.060Z,21.85
2018-11-04T03:57:50.276Z,20.17
2018-11-04T03:58:24.394Z,21.82
2018-11-04T03:58:58.519Z,25.48
2018-11-04T03:59:32.608Z,20.88
2018-11-04T04:00:09.961Z,22.73
2018-11-04T04:00:44.033Z,19.45
2018-11-04T04:01:18.467Z,26.25
2018-11-04T04:01:52.550Z,21.62
2018-11-04T04:02:26.994Z,22.90
2018-11-04T04:03:01.082Z,19.45
2018-11-04T04:03:35.178Z,20.43
2018-11-04T04:04:09.278Z,20.23
2018-11-04T04:04:43.378Z,19.70
2018-11-04T04:05:17.514Z,17.10
2018-11-04T04:05:51.605Z,19.07
2018-11-04T04:06:25.694Z,21.35
2018-11-04T04:06:59.778Z,25.60
2018-11-04T04:07:33.921Z,18.23
2018-11-04T04:08:08.206Z,24.60
2018-11-04T04:08:42.684Z,19.87
2018-11-04T04:09:16.854Z,23.20
2018-11-04T04:09:51.260Z,27.87
2018-11-04T04:10:25.668Z,22.67
2018-11-04T04:10:59.794Z,24.50
2018-11-04T04:11:33.900Z,18.95
2018-11-04T04:12:08.330Z,18.62
2018-11-04T04:12:42.426Z,22.80
2018-11-04T04:13:16.512Z,20.57
2018-11-04T04:13:50.575Z,20.23
2018-11-04T04:14:24.703Z,22.32
2018-11-04T04:14:58.804Z,20.62
2018-11-04T04:15:32.900Z,19.92
2018-11-04T04:16:07.342Z,27.50
2018-11-04T04:16:41.469Z,22.48
2018-11-04T04:17:15.586Z,23.95
2018-11-04T04:17:49.678Z,21.37
2018-11-04T04:18:23.801Z,19.92
2018-11-04T04:18:57.909Z,19.87
2018-11-04T04:19:32.068Z,22.75
2018-11-04T04:20:06.680Z,25.32
2018-11-04T04:20:41.124Z,20.57
2018-11-04T04:21:15.228Z,18.92
2018-11-04T04:21:49.383Z,19.40
2018-11-04T04:22:23.496Z,21.00
2018-11-04T04:22:57.591Z,21.68
2018-11-04T04:23:31.726Z,21.48
2018-11-04T04:24:06.406Z,22.00
2018-11-04T04:24:40.922Z,22.35
2018-11-04T04:25:15.288Z,22.05
2018-11-04T04:25:49.523Z,21.60
2018-11-04T04:26:23.720Z,21.93
2018-11-04T04:26:58.291Z,21.82
2018-11-04T04:27:32.568Z,22.87
2018-11-04T04:28:07.260Z,23.20
2018-11-04T04:28:41.753Z,22.10
2018-11-04T04:29:16.239Z,22.90
2018-11-04T04:29:50.394Z,24.30
2018-11-04T04:30:24.522Z,23.47
2018-11-04T04:30:59.187Z,23.02
2018-11-04T04:31:33.291Z,22.73
2018-11-04T04:32:07.540Z,20.95
2018-11-04T04:32:41.654Z,21.12
2018-11-04T04:33:16.090Z,22.65
2018-11-04T04:33:50.345Z,20.00
2018-11-04T04:34:24.594Z,18.42
2018-11-04T04:34:58.831Z,16.35
2018-11-04T04:35:33.018Z,24.50
2018-11-04T04:36:07.482Z,24.27
2018-11-04T04:36:41.597Z,23.50
2018-11-04T04:37:15.751Z,25.65
2018-11-04T04:37:50.018Z,26.52
2018-11-04T04:38:24.752Z,19.85
2018-11-04T04:39:01.989Z,21.80
2018-11-04T04:39:36.522Z,19.23
2018-11-04T04:40:11.496Z,22.00
2018-11-04T04:40:45.624Z,19.17
2018-11-04T04:41:19.733Z,21.75
2018-11-04T04:41:53.909Z,21.25
2018-11-04T04:42:28.093Z,23.50
2018-11-04T04:43:02.310Z,27.13
2018-11-04T04:43:36.602Z,21.45
2018-11-04T04:44:10.944Z,24.52
2018-11-04T04:44:45.219Z,22.32
2018-11-04T04:45:19.463Z,24.00
2018-11-04T04:45:53.607Z,22.20
2018-11-04T04:46:27.772Z,20.10
2018-11-04T04:47:02.584Z,23.22
2018-11-04T04:47:36.934Z,26.10
2018-11-04T04:48:11.278Z,17.98
2018-11-04T04:48:45.533Z,22.62
2018-11-04T04:49:20.002Z,20.68
2018-11-04T04:49:54.272Z,19.37
2018-11-04T04:50:28.713Z,25.35
2018-11-04T04:51:03.010Z,20.20
2018-11-04T04:51:37.434Z,21.62
2018-11-04T04:52:11.558Z,21.60
2018-11-04T04:52:45.674Z,21.05
2018-11-04T04:53:22.948Z,24.45
2018-11-04T04:53:57.292Z,21.48
2018-11-04T04:54:31.874Z,18.60
2018-11-04T04:55:06.107Z,18.50
2018-11-04T04:55:40.225Z,20.45
2018-11-04T04:56:14.429Z,23.87
2018-11-04T04:56:48.682Z,21.77
2018-11-04T04:57:23.002Z,20.48
2018-11-04T04:57:57.308Z,21.75
2018-11-04T04:58:31.726Z,20.55
2018-11-04T04:59:06.349Z,23.00
2018-11-04T04:59:40.613Z,20.60
2018-11-04T05:00:15.118Z,23.12
2018-11-04T05:00:49.324Z,20.20
2018-11-04T05:01:23.762Z,21.35
2018-11-04T05:01:57.888Z,23.95
2018-11-04T05:02:32.012Z,22.15
2018-11-04T05:03:06.778Z,23.00
2018-11-04T05:03:43.996Z,21.00
2018-11-04T05:04:18.120Z,25.77
2018-11-04T05:04:52.229Z,19.27
2018-11-04T05:05:26.338Z,16.70
2018-11-04T05:06:00.502Z,17.85
2018-11-04T05:06:34.922Z,20.65
2018-11-04T05:07:09.353Z,19.48
2018-11-04T05:07:43.468Z,21.27
2018-11-04T05:08:17.570Z,20.55
2018-11-04T05:08:51.998Z,19.02
2018-11-04T05:09:26.434Z,19.95
2018-11-04T05:10:00.539Z,19.92
2018-11-04T05:10:34.626Z,19.32
2018-11-04T05:11:09.090Z,23.90
2018-11-04T05:11:43.184Z,20.82
2018-11-04T05:12:17.270Z,22.62
2018-11-04T05:12:51.386Z,19.55
2018-11-04T05:13:25.822Z,23.20
2018-11-04T05:14:00.038Z,17.85
2018-11-04T05:14:34.142Z,18.87
2018-11-04T05:15:09.083Z,19.40
2018-11-04T05:15:43.548Z,19.07
2018-11-04T05:16:17.686Z,17.65
2018-11-04T05:16:53.802Z,22.25
2018-11-04T05:17:27.890Z,18.45
2018-11-04T05:18:02.680Z,17.75
2018-11-04T05:18:36.770Z,19.05
2018-11-04T05:19:10.904Z,18.60
2018-11-04T05:19:45.028Z,16.95
2018-11-04T05:20:19.140Z,18.82
2018-11-04T05:20:53.238Z,21.17
2018-11-04T05:21:27.340Z,17.95
2018-11-04T05:22:01.470Z,21.40
2018-11-04T05:22:35.566Z,15.35
2018-11-04T05:23:09.681Z,21.87
2018-11-04T05:23:43.804Z,21.20
2018-11-04T05:24:17.908Z,17.57
2018-11-04T05:24:52.022Z,22.58
2018-11-04T05:25:26.104Z,20.32
2018-11-04T05:26:00.513Z,23.05
2018-11-04T05:26:34.652Z,16.77
2018-11-04T05:27:09.118Z,19.65
2018-11-04T05:27:43.239Z,26.20
2018-11-04T05:28:17.356Z,20.12
2018-11-04T05:28:52.331Z,16.90
2018-11-04T05:29:26.460Z,22.05
2018-11-04T05:30:00.778Z,19.65
2018-11-04T05:30:35.486Z,18.35
2018-11-04T05:31:09.664Z,18.48
2018-11-04T05:31:44.576Z,16.95
2018-11-04T05:32:19.014Z,18.25
2018-11-04T05:32:53.434Z,19.92
2018-11-04T05:33:27.544Z,16.75
2018-11-04T05:34:01.664Z,20.88
2018-11-04T05:34:35.786Z,18.42
2018-11-04T05:35:10.234Z,22.55
2018-11-04T05:35:44.794Z,17.90
2018-11-04T05:36:19.118Z,15.90
2018-11-04T05:36:53.456Z,23.12
2018-11-04T05:37:27.666Z,18.02
2018-11-04T05:38:03.068Z,21.62
2018-11-04T05:38:37.184Z,19.50
2018-11-04T05:39:11.777Z,20.55
2018-11-04T05:39:45.944Z,20.25
2018-11-04T05:40:20.110Z,18.77
2018-11-04T05:40:54.406Z,18.20
2018-11-04T05:41:28.498Z,20.43
2018-11-04T05:42:02.797Z,21.50
2018-11-04T05:42:36.972Z,19.95
2018-11-04T05:43:11.050Z,19.40
2018-11-04T05:43:45.145Z,20.35
2018-11-04T05:44:19.352Z,21.40
2018-11-04T05:44:53.502Z,25.80
2018-11-04T05:45:27.568Z,19.25
2018-11-04T05:46:01.660Z,21.52
2018-11-04T05:46:36.282Z,19.40
2018-11-04T05:47:10.406Z,19.70
2018-11-04T05:47:44.828Z,17.35
2018-11-04T05:48:18.946Z,18.20
2018-11-04T05:48:53.049Z,19.05
2018-11-04T05:49:27.181Z,22.10
2018-11-04T05:50:01.315Z,21.05
2018-11-04T05:50:35.397Z,18.60
2018-11-04T05:51:09.496Z,20.72
2018-11-04T05:51:43.598Z,18.62
2018-11-04T05:52:17.721Z,23.30
2018-11-04T05:52:51.818Z,20.97
2018-11-04T05:53:25.919Z,17.15
2018-11-04T05:54:00.039Z,25.37
2018-11-04T05:54:34.161Z,20.77
2018-11-04T05:55:08.924Z,18.52
2018-11-04T05:55:43.033Z,25.57
2018-11-04T05:56:17.158Z,22.07
2018-11-04T05:56:51.277Z,19.42
2018-11-04T05:57:25.408Z,23.20
2018-11-04T05:57:59.541Z,20.08
2018-11-04T05:58:34.015Z,24.35
2018-11-04T05:59:08.281Z,18.35
2018-11-04T05:59:42.417Z,22.98
2018-11-04T06:00:16.540Z,19.27
2018-11-04T06:00:51.001Z,18.82
2018-11-04T06:01:25.416Z,21.80
2018-11-04T06:01:59.530Z,24.60
2018-11-04T06:02:33.632Z,25.48
2018-11-04T06:03:07.934Z,19.17
2018-11-04T06:03:42.273Z,20.55
2018-11-04T06:04:16.377Z,17.80
2018-11-04T06:04:50.474Z,23.95
2018-11-04T06:05:24.561Z,20.62
2018-11-04T06:05:58.705Z,18.12
2018-11-04T06:06:32.808Z,18.70
2018-11-04T06:07:07.441Z,23.25
2018-11-04T06:07:41.925Z,24.23
2018-11-04T06:08:16.141Z,21.70
2018-11-04T06:08:50.227Z,23.55
2018-11-04T06:09:24.701Z,24.67
2018-11-04T06:09:58.803Z,19.67
2018-11-04T06:10:33.461Z,18.17
2018-11-04T06:11:07.871Z,24.15
2018-11-04T06:11:41.977Z,17.95
2018-11-04T06:12:16.081Z,21.30
2018-11-04T06:12:50.237Z,21.45
2018-11-04T06:13:24.317Z,20.97
2018-11-04T06:13:58.423Z,23.62
2018-11-04T06:14:32.513Z,20.85
2018-11-04T06:15:07.421Z,21.85
2018-11-04T06:15:41.534Z,18.27
2018-11-04T06:16:15.629Z,22.67
2018-11-04T06:16:49.701Z,25.90
2018-11-04T06:17:23.792Z,24.15
2018-11-04T06:17:58.430Z,21.90
2018-11-04T06:18:32.509Z,20.17
2018-11-04T06:19:06.662Z,26.75
2018-11-04T06:19:40.944Z,22.73
2018-11-04T06:20:15.053Z,21.50
2018-11-04T06:20:49.163Z,26.60
2018-11-04T06:21:23.340Z,25.15
2018-11-04T06:21:57.557Z,25.50
2018-11-04T06:22:31.641Z,25.95
2018-11-04T06:23:06.134Z,22.25
2018-11-04T06:23:40.225Z,25.50
2018-11-04T06:24:14.317Z,23.75
2018-11-04T06:24:48.417Z,22.42
2018-11-04T06:25:22.523Z,19.00
2018-11-04T06:25:56.621Z,24.72
2018-11-04T06:26:30.698Z,19.48
2018-11-04T06:27:04.784Z,21.10
2018-11-04T06:27:38.896Z,22.62
2018-11-04T06:28:13.381Z,24.30
2018-11-04T06:28:47.812Z,25.48
2018-11-04T06:29:22.277Z,21.75
2018-11-04T06:29:56.397Z,22.27
2018-11-04T06:30:30.517Z,22.17
2018-11-04T06:31:05.162Z,23.50
2018-11-04T06:31:39.265Z,29.05
2018-11-04T06:32:13.354Z,25.75
2018-11-04T06:32:47.427Z,24.60
2018-11-04T06:33:21.573Z,26.40
2018-11-04T06:33:55.679Z,29.70
2018-11-04T06:34:29.864Z,25.23
2018-11-04T06:35:05.009Z,20.75
2018-11-04T06:35:39.137Z,21.75
2018-11-04T06:36:13.268Z,20.75
2018-11-04T06:36:47.427Z,26.93
2018-11-04T06:37:21.552Z,21.30
2018-11-04T06:37:55.636Z,26.07
2018-11-04T06:38:29.786Z,26.23
2018-11-04T06:39:05.021Z,20.48
2018-11-04T06:39:39.431Z,25.17
2018-11-04T06:40:13.533Z,23.27
2018-11-04T06:40:48.213Z,21.60
2018-11-04T06:41:22.321Z,22.52
2018-11-04T06:41:56.402Z,27.95
2018-11-04T06:42:30.509Z,24.47
2018-11-04T06:43:05.035Z,24.02
2018-11-04T06:43:39.157Z,20.75
2018-11-04T06:44:13.271Z,27.50
2018-11-04T06:44:47.444Z,26.42
2018-11-04T06:45:21.890Z,22.00
2018-11-04T06:45:56.029Z,24.50
2018-11-04T06:46:30.865Z,26.52
2018-11-04T06:47:05.209Z,23.42
2018-11-04T06:47:41.469Z,25.68
2018-11-04T06:48:15.973Z,35.58
2018-11-04T06:48:50.447Z,25.70
2018-11-04T06:49:24.542Z,27.60
2018-11-04T06:49:58.618Z,24.10
2018-11-04T06:50:32.732Z,33.85
2018-11-04T06:51:06.847Z,25.27
2018-11-04T06:51:40.978Z,28.73
2018-11-04T06:52:15.074Z,29.60
2018-11-04T06:52:49.181Z,30.27
2018-11-04T06:53:23.889Z,27.13
2018-11-04T06:53:58.503Z,27.90
2018-11-04T06:54:32.623Z,27.05
2018-11-04T06:55:08.147Z,24.77
2018-11-04T06:55:42.272Z,29.00
2018-11-04T06:56:16.388Z,28.20
2018-11-04T06:56:50.690Z,26.95
2018-11-04T06:57:24.808Z,25.65
2018-11-04T06:57:59.247Z,29.65
2018-11-04T06:58:33.367Z,28.55
2018-11-04T06:59:07.509Z,32.48
2018-11-04T06:59:41.601Z,26.27
2018-11-04T07:00:15.698Z,27.87
2018-11-04T07:00:49.797Z,27.95
2018-11-04T07:01:23.925Z,29.20
2018-11-04T07:01:58.045Z,30.68
2018-11-04T07:02:32.149Z,24.70
2018-11-04T07:03:06.925Z,26.05
2018-11-04T07:03:51.225Z,27.65
2018-11-04T07:04:28.169Z,29.85
2018-11-04T07:05:02.292Z,30.97
2018-11-04T07:05:36.377Z,28.90
2018-11-04T07:06:10.845Z,22.02
2018-11-04T07:06:45.609Z,25.50
2018-11-04T07:07:19.737Z,25.70
2018-11-04T07:07:54.395Z,29.10
2018-11-04T07:08:28.513Z,24.87
2018-11-04T07:09:02.658Z,25.90
2018-11-04T07:09:36.969Z,25.75
2018-11-04T07:10:11.171Z,30.20
2018-11-04T07:10:45.293Z,28.05
2018-11-04T07:11:19.674Z,29.60
2018-11-04T07:11:53.812Z,27.32
2018-11-04T07:12:27.919Z,27.52
2018-11-04T07:13:02.056Z,30.48
2018-11-04T07:13:36.233Z,30.72
2018-11-04T07:14:10.838Z,33.90
2018-11-04T07:14:44.979Z,31.95
2018-11-04T07:15:19.810Z,26.55
2018-11-04T07:15:53.925Z,33.00
2018-11-04T07:16:28.373Z,35.95
2018-11-04T07:17:02.599Z,32.98
2018-11-04T07:17:36.673Z,24.77
2018-11-04T07:18:10.780Z,24.15
2018-11-04T07:18:44.891Z,25.05
2018-11-04T07:19:19.317Z,26.37
2018-11-04T07:19:53.819Z,23.12
2018-11-04T07:20:28.443Z,27.27
2018-11-04T07:21:07.067Z,29.10
2018-11-04T07:21:41.840Z,23.20
2018-11-04T07:22:15.945Z,31.48
2018-11-04T07:22:50.020Z,23.47
2018-11-04T07:23:24.143Z,22.95
2018-11-04T07:23:58.239Z,26.42